Time;durP1;ratioP1;P1;durP2;ratioP2;P2;SDS_P1;SDS_P2;PMS_P1;PMS_P2;Temp;Humidity;BMP_temperature;BMP_pressure;BME280_temperature;BME280_humidity;BME280_pressure;Samples;Min_cycle;Max_cycle;Signal;HPM_P1;HPM_P2
2023/12/01 00:01:11;;;;;;;;;;;2.60;88.40;;;;;;5053838;28;19982;-60
2023/12/01 00:03:44;;;;;;;;;;;2.60;88.20;;;;;;5054345;28;20019;-59
2023/12/01 00:06:17;;;;;;;;;;;2.70;88.20;;;;;;5054832;28;19963;-59
2023/12/01 00:08:50;;;;;;;;;;;2.60;88.20;;;;;;5055369;28;19951;-59
2023/12/01 00:11:28;;;;;;;;;;;2.70;88.40;;;;;;5052598;28;19968;-58
2023/12/01 00:14:02;;;;;;;;;;;2.60;88.40;;;;;;5053196;28;20581;-59
2023/12/01 00:16:36;;;;;;;;;;;2.60;88.40;;;;;;5052319;28;19939;-58
2023/12/01 00:19:09;;;;;;;;;;;2.60;88.50;;;;;;5028422;28;20355;-60
2023/12/01 00:21:42;;;;;;;;;;;2.60;88.60;;;;;;5049086;28;19925;-58
2023/12/01 00:24:15;;;;;;;;;;;2.60;88.50;;;;;;5054646;28;19928;-60
2023/12/01 00:26:49;;;;;;;;;;;2.50;88.60;;;;;;5054450;28;20015;-59
2023/12/01 00:29:23;;;;;;;;;;;2.50;88.70;;;;;;5052337;28;19935;-59
2023/12/01 00:31:57;;;;;;;;;;;2.60;88.60;;;;;;5050082;28;19932;-62
2023/12/01 00:34:31;;;;;;;;;;;2.60;88.60;;;;;;5026689;28;19925;-60
2023/12/01 00:37:29;;;;;;;;;;;2.60;88.60;;;;;;5049036;28;20477;-61
2023/12/01 00:40:03;;;;;;;;;;;2.60;88.60;;;;;;5041796;28;19972;-61
2023/12/01 00:42:42;;;;;;;;;;;2.60;88.60;;;;;;5045417;28;19929;-62
2023/12/01 00:45:16;;;;;;;;;;;2.60;88.50;;;;;;5051722;28;19929;-61
2023/12/01 00:47:49;;;;;;;;;;;2.60;88.60;;;;;;5049744;28;20008;-61
2023/12/01 00:50:22;;;;;;;;;;;2.60;88.60;;;;;;5035835;28;21212;-63
2023/12/01 00:52:55;;;;;;;;;;;2.60;88.50;;;;;;5046216;28;19925;-61
2023/12/01 00:55:28;;;;;;;;;;;2.60;88.50;;;;;;5046061;28;19984;-62
2023/12/01 00:58:02;;;;;;;;;;;2.60;88.50;;;;;;5050531;28;19999;-62
2023/12/01 01:00:36;;;;;;;;;;;2.70;88.60;;;;;;5051786;28;20355;-61
2023/12/01 01:03:09;;;;;;;;;;;2.70;88.60;;;;;;5051009;28;19929;-62
2023/12/01 01:05:45;;;;;;;;;;;2.70;88.60;;;;;;5045104;28;19971;-63
2023/12/01 01:08:18;;;;;;;;;;;2.70;88.50;;;;;;5050566;28;20018;-60
2023/12/01 01:10:53;;;;;;;;;;;2.70;88.50;;;;;;5052121;28;20475;-61
2023/12/01 01:13:28;;;;;;;;;;;2.70;88.60;;;;;;5051400;28;20008;-61
2023/12/01 01:16:10;;;;;;;;;;;2.70;88.50;;;;;;5051420;28;19967;-62
2023/12/01 01:18:43;;;;;;;;;;;2.70;88.50;;;;;;5051863;28;19929;-61
2023/12/01 01:21:17;;;;;;;;;;;2.70;88.60;;;;;;5050602;28;19948;-62
2023/12/01 01:23:44;;;;;;;;;;;2.70;88.60;;;;;;5033692;28;19936;-62
2023/12/01 01:26:17;;;;;;;;;;;2.60;88.60;;;;;;5050077;28;19971;-60
2023/12/01 01:28:52;;;;;;;;;;;2.70;88.50;;;;;;5051759;28;19929;-60
2023/12/01 01:31:26;;;;;;;;;;;2.70;88.60;;;;;;5050726;28;19925;-61
2023/12/01 01:33:59;;;;;;;;;;;2.60;88.60;;;;;;5025162;28;19974;-62
2023/12/01 01:36:32;;;;;;;;;;;2.60;88.70;;;;;;5027001;28;19932;-62
2023/12/01 01:39:05;;;;;;;;;;;2.60;88.70;;;;;;5050491;28;19925;-61
2023/12/01 01:41:38;;;;;;;;;;;2.70;88.70;;;;;;5050888;28;19932;-64
2023/12/01 01:44:12;;;;;;;;;;;2.70;88.60;;;;;;5049472;28;19967;-63
2023/12/01 01:46:46;;;;;;;;;;;2.70;88.60;;;;;;5050948;28;19971;-64
2023/12/01 01:49:24;;;;;;;;;;;2.60;88.60;;;;;;5050069;28;19932;-63
2023/12/01 01:51:59;;;;;;;;;;;2.70;88.60;;;;;;5049525;28;19937;-63
2023/12/01 01:54:32;;;;;;;;;;;2.70;88.50;;;;;;5024368;28;20403;-63
2023/12/01 01:57:06;;;;;;;;;;;2.80;88.40;;;;;;5027248;28;19948;-64
2023/12/01 01:59:40;;;;;;;;;;;2.80;88.40;;;;;;5043215;28;19936;-63
2023/12/01 02:02:22;;;;;;;;;;;2.70;88.20;;;;;;5026837;28;19974;-63
2023/12/01 02:05:04;;;;;;;;;;;2.80;88.10;;;;;;5049130;28;19928;-64
2023/12/01 02:07:38;;;;;;;;;;;2.80;88.20;;;;;;5050777;28;19924;-63
2023/12/01 02:10:05;;;;;;;;;;;2.70;88.30;;;;;;5031825;28;19939;-64
2023/12/01 02:12:38;;;;;;;;;;;2.80;88.30;;;;;;5050695;28;19928;-64
2023/12/01 02:15:12;;;;;;;;;;;2.70;88.40;;;;;;5050334;28;20382;-63
2023/12/01 02:17:47;;;;;;;;;;;2.70;88.40;;;;;;5049675;28;20021;-63
2023/12/01 02:20:21;;;;;;;;;;;2.70;88.60;;;;;;5049206;28;19929;-63
2023/12/01 02:22:55;;;;;;;;;;;2.60;88.70;;;;;;5050301;28;19928;-66
2023/12/01 02:25:29;;;;;;;;;;;2.60;88.60;;;;;;5031690;28;20406;-64
2023/12/01 02:28:02;;;;;;;;;;;2.70;88.70;;;;;;5047923;28;19925;-63
2023/12/01 02:30:35;;;;;;;;;;;2.70;88.70;;;;;;5025095;28;19931;-63
2023/12/01 02:33:02;;;;;;;;;;;2.70;88.70;;;;;;5049629;28;19933;-63
2023/12/01 02:35:35;;;;;;;;;;;2.60;88.60;;;;;;5025652;28;20007;-63
2023/12/01 02:38:10;;;;;;;;;;;2.70;88.50;;;;;;5049397;28;19929;-63
2023/12/01 02:40:49;;;;;;;;;;;2.70;88.60;;;;;;5050347;28;20008;-63
2023/12/01 02:43:22;;;;;;;;;;;2.70;88.40;;;;;;5049433;28;19975;-63
2023/12/01 02:45:55;;;;;;;;;;;2.70;88.30;;;;;;5047289;28;19947;-64
2023/12/01 02:48:28;;;;;;;;;;;2.70;88.30;;;;;;5050156;28;19937;-64
2023/12/01 02:51:01;;;;;;;;;;;2.70;88.40;;;;;;5049169;28;19935;-61
2023/12/01 02:53:35;;;;;;;;;;;2.70;88.30;;;;;;5026727;28;20395;-62
2023/12/01 02:56:10;;;;;;;;;;;2.80;88.20;;;;;;5049287;28;19924;-61
2023/12/01 02:58:43;;;;;;;;;;;2.80;88.20;;;;;;5052137;28;19970;-62
2023/12/01 03:01:20;;;;;;;;;;;2.70;88.20;;;;;;5043055;28;19972;-62
2023/12/01 03:03:53;;;;;;;;;;;2.70;88.20;;;;;;5047292;28;20376;-62
2023/12/01 03:06:26;;;;;;;;;;;2.80;88.20;;;;;;5027961;28;19925;-61
2023/12/01 03:09:00;;;;;;;;;;;2.80;88.10;;;;;;5051964;28;19928;-63
2023/12/01 03:11:34;;;;;;;;;;;2.80;88.10;;;;;;5051508;28;19928;-63
2023/12/01 03:14:07;;;;;;;;;;;2.80;87.90;;;;;;5050123;28;19928;-62
2023/12/01 03:16:40;;;;;;;;;;;2.70;87.90;;;;;;5050441;28;19932;-62
2023/12/01 03:19:13;;;;;;;;;;;2.70;88.00;;;;;;5050142;28;19928;-62
2023/12/01 03:21:46;;;;;;;;;;;2.70;88.20;;;;;;5040992;28;19929;-62
2023/12/01 03:24:28;;;;;;;;;;;2.70;88.10;;;;;;5030258;28;20374;-61
2023/12/01 03:27:03;;;;;;;;;;;2.80;88.00;;;;;;5048996;28;19972;-62
2023/12/01 03:29:39;;;;;;;;;;;2.80;88.00;;;;;;5047187;28;20015;-63
2023/12/01 03:32:15;;;;;;;;;;;2.80;88.00;;;;;;5036647;28;20017;-62
2023/12/01 03:34:48;;;;;;;;;;;2.80;87.90;;;;;;5045901;28;19964;-61
2023/12/01 03:37:21;;;;;;;;;;;2.80;87.90;;;;;;5049170;28;19947;-63
2023/12/01 03:40:03;;;;;;;;;;;2.80;87.90;;;;;;5047476;28;19925;-62
2023/12/01 03:42:37;;;;;;;;;;;2.80;88.00;;;;;;5032156;28;20000;-62
2023/12/01 03:45:12;;;;;;;;;;;2.70;88.10;;;;;;5031702;28;19928;-63
2023/12/01 03:47:46;;;;;;;;;;;2.80;88.00;;;;;;5048915;28;19931;-63
2023/12/01 03:50:12;;;;;;;;;;;2.80;88.00;;;;;;5049940;28;19968;-62
2023/12/01 03:52:47;;;;;;;;;;;2.80;88.00;;;;;;5049643;28;19932;-63
2023/12/01 03:55:21;;;;;;;;;;;2.80;87.90;;;;;;5049656;28;19933;-62
2023/12/01 03:57:55;;;;;;;;;;;2.80;87.80;;;;;;5031694;28;20387;-61
2023/12/01 04:00:32;;;;;;;;;;;2.70;87.60;;;;;;5048124;28;19925;-64
2023/12/01 04:03:05;;;;;;;;;;;2.70;87.70;;;;;;5049197;28;20363;-63
2023/12/01 04:05:38;;;;;;;;;;;2.60;87.70;;;;;;5050185;28;19929;-63
2023/12/01 04:08:12;;;;;;;;;;;2.70;87.80;;;;;;5047490;28;19983;-63
2023/12/01 04:10:47;;;;;;;;;;;2.70;87.80;;;;;;5049783;28;19929;-63
2023/12/01 04:13:20;;;;;;;;;;;2.70;87.70;;;;;;5049122;28;19929;-64
2023/12/01 04:15:53;;;;;;;;;;;2.70;87.70;;;;;;5029933;28;19929;-63
2023/12/01 04:18:27;;;;;;;;;;;2.80;87.60;;;;;;5049319;28;19924;-63
2023/12/01 04:21:00;;;;;;;;;;;2.80;87.50;;;;;;5048299;28;19932;-64
2023/12/01 04:23:33;;;;;;;;;;;2.80;87.50;;;;;;5048179;28;19933;-63
2023/12/01 04:26:08;;;;;;;;;;;2.80;87.40;;;;;;5045860;28;20007;-64
2023/12/01 04:28:41;;;;;;;;;;;2.80;87.20;;;;;;5048524;28;19935;-64
2023/12/01 04:31:14;;;;;;;;;;;2.80;87.30;;;;;;5048110;28;19932;-64
2023/12/01 04:33:47;;;;;;;;;;;2.80;87.20;;;;;;5045931;28;19979;-63
2023/12/01 04:36:20;;;;;;;;;;;2.80;87.20;;;;;;5047726;28;19931;-63
2023/12/01 04:38:53;;;;;;;;;;;2.80;87.10;;;;;;5047608;28;20423;-65
2023/12/01 04:41:27;;;;;;;;;;;2.80;87.10;;;;;;5046907;28;20268;-65
2023/12/01 04:44:01;;;;;;;;;;;2.80;87.00;;;;;;5050553;28;19972;-65
2023/12/01 04:46:28;;;;;;;;;;;2.80;87.10;;;;;;5049411;28;19929;-65
2023/12/01 04:49:01;;;;;;;;;;;2.70;87.00;;;;;;5050996;28;19935;-64
2023/12/01 04:51:34;;;;;;;;;;;2.70;87.20;;;;;;5051363;28;20011;-63
2023/12/01 04:54:08;;;;;;;;;;;2.70;87.20;;;;;;5046548;28;19924;-64
2023/12/01 04:56:42;;;;;;;;;;;2.70;87.20;;;;;;5051349;28;19968;-64
2023/12/01 04:59:16;;;;;;;;;;;2.70;87.00;;;;;;5050886;28;19979;-63
2023/12/01 05:01:49;;;;;;;;;;;2.70;87.20;;;;;;5051760;28;19939;-65
2023/12/01 05:04:22;;;;;;;;;;;2.70;87.20;;;;;;5050248;28;19925;-65
2023/12/01 05:06:55;;;;;;;;;;;2.80;87.10;;;;;;5051866;28;19931;-65
2023/12/01 05:09:29;;;;;;;;;;;2.80;87.00;;;;;;5050631;28;19960;-64
2023/12/01 05:12:05;;;;;;;;;;;2.80;86.80;;;;;;5051647;28;20015;-76
2023/12/01 05:14:38;;;;;;;;;;;2.80;86.90;;;;;;5052282;28;20449;-76
2023/12/01 05:17:11;;;;;;;;;;;2.80;86.90;;;;;;5050841;28;19939;-75
2023/12/01 05:19:44;;;;;;;;;;;2.80;86.90;;;;;;5050686;28;19935;-76
2023/12/01 05:22:17;;;;;;;;;;;2.70;86.90;;;;;;5051266;28;19935;-77
2023/12/01 05:24:50;;;;;;;;;;;2.70;87.00;;;;;;5050432;28;19939;-76
2023/12/01 05:27:24;;;;;;;;;;;2.70;87.00;;;;;;5051079;28;19928;-76
2023/12/01 05:29:57;;;;;;;;;;;2.70;87.00;;;;;;5049957;28;19925;-77
2023/12/01 05:32:30;;;;;;;;;;;2.70;87.00;;;;;;5051937;28;19933;-77
2023/12/01 05:35:03;;;;;;;;;;;2.80;86.80;;;;;;5048724;28;19958;-78
2023/12/01 05:37:36;;;;;;;;;;;2.80;86.80;;;;;;5051775;28;20363;-76
2023/12/01 05:40:10;;;;;;;;;;;2.80;86.60;;;;;;5050744;28;19924;-75
2023/12/01 05:42:45;;;;;;;;;;;2.70;86.80;;;;;;5049175;28;20034;-75
2023/12/01 05:45:18;;;;;;;;;;;2.70;86.70;;;;;;5048786;28;19931;-78
2023/12/01 05:47:53;;;;;;;;;;;2.70;86.80;;;;;;5051446;28;20437;-78
2023/12/01 05:50:27;;;;;;;;;;;2.70;86.80;;;;;;5049028;28;19929;-76
2023/12/01 05:53:01;;;;;;;;;;;2.70;86.60;;;;;;5051104;28;20010;-77
2023/12/01 05:55:35;;;;;;;;;;;2.60;86.70;;;;;;5051159;28;19925;-77
2023/12/01 05:58:11;;;;;;;;;;;2.60;86.70;;;;;;5050252;28;19929;-78
2023/12/01 06:00:45;;;;;;;;;;;2.70;86.80;;;;;;5050074;28;19925;-76
2023/12/01 06:03:19;;;;;;;;;;;2.70;86.60;;;;;;5051292;28;19929;-78
2023/12/01 06:05:52;;;;;;;;;;;2.70;86.50;;;;;;5048292;28;19925;-76
2023/12/01 06:08:25;;;;;;;;;;;2.60;86.70;;;;;;5051245;28;19925;-75
2023/12/01 06:10:58;;;;;;;;;;;2.70;86.50;;;;;;5048910;28;19970;-77
2023/12/01 06:13:33;;;;;;;;;;;2.60;86.60;;;;;;5049564;28;19925;-75
2023/12/01 06:16:09;;;;;;;;;;;2.60;86.60;;;;;;5049202;28;20260;-77
2023/12/01 06:18:43;;;;;;;;;;;2.70;86.60;;;;;;5050753;28;19936;-76
2023/12/01 06:21:16;;;;;;;;;;;2.70;86.60;;;;;;5049095;28;19940;-63
2023/12/01 06:23:49;;;;;;;;;;;2.60;86.60;;;;;;5049528;28;20541;-64
2023/12/01 06:26:22;;;;;;;;;;;2.70;86.60;;;;;;5050070;28;19925;-62
2023/12/01 06:28:56;;;;;;;;;;;2.70;86.50;;;;;;5047620;28;19925;-65
2023/12/01 06:31:30;;;;;;;;;;;2.70;86.40;;;;;;5046915;28;19975;-64
2023/12/01 06:34:03;;;;;;;;;;;2.70;86.40;;;;;;5041251;28;19925;-62
2023/12/01 06:36:36;;;;;;;;;;;2.70;86.50;;;;;;5049465;28;19978;-64
2023/12/01 06:39:10;;;;;;;;;;;2.70;86.60;;;;;;5049670;28;19925;-65
2023/12/01 06:41:43;;;;;;;;;;;2.70;86.50;;;;;;5046445;28;19925;-64
2023/12/01 06:44:20;;;;;;;;;;;2.80;86.40;;;;;;5050243;28;19925;-64
2023/12/01 06:46:54;;;;;;;;;;;2.80;86.30;;;;;;5049596;28;20012;-63
2023/12/01 06:49:27;;;;;;;;;;;2.80;86.30;;;;;;5046584;28;20020;-63
2023/12/01 06:52:00;;;;;;;;;;;2.70;86.30;;;;;;5049083;28;19971;-63
2023/12/01 06:54:33;;;;;;;;;;;2.70;86.30;;;;;;5049683;28;19929;-64
2023/12/01 06:57:06;;;;;;;;;;;2.70;86.30;;;;;;5049643;28;19929;-64
2023/12/01 06:59:40;;;;;;;;;;;2.70;86.20;;;;;;5047569;28;20002;-64
2023/12/01 07:02:17;;;;;;;;;;;2.70;86.20;;;;;;5045198;28;19932;-63
2023/12/01 07:04:55;;;;;;;;;;;2.70;86.10;;;;;;5047869;28;19924;-62
2023/12/01 07:07:30;;;;;;;;;;;2.70;86.30;;;;;;5045561;28;19947;-62
2023/12/01 07:10:05;;;;;;;;;;;2.70;86.10;;;;;;5046606;28;19929;-63
2023/12/01 07:12:38;;;;;;;;;;;2.70;86.00;;;;;;5049286;28;19931;-64
2023/12/01 07:15:12;;;;;;;;;;;2.70;86.20;;;;;;5047899;28;19978;-63
2023/12/01 07:17:48;;;;;;;;;;;2.70;86.10;;;;;;5048989;28;19924;-64
2023/12/01 07:20:21;;;;;;;;;;;2.70;86.00;;;;;;5047378;28;19928;-63
2023/12/01 07:22:55;;;;;;;;;;;2.70;85.90;;;;;;5049236;28;19929;-64
2023/12/01 07:25:28;;;;;;;;;;;2.70;85.90;;;;;;5048651;28;19933;-63
2023/12/01 07:28:02;;;;;;;;;;;2.70;85.80;;;;;;5045948;28;19929;-62
2023/12/01 07:30:40;;;;;;;;;;;2.80;85.90;;;;;;5049171;28;19935;-63
2023/12/01 07:33:13;;;;;;;;;;;2.80;85.70;;;;;;5048616;28;20426;-63
2023/12/01 07:35:46;;;;;;;;;;;2.80;85.50;;;;;;5049089;28;19932;-65
2023/12/01 07:38:20;;;;;;;;;;;2.70;85.70;;;;;;5048882;28;19964;-63
2023/12/01 07:40:53;;;;;;;;;;;2.70;85.80;;;;;;5043676;28;19925;-65
2023/12/01 07:43:26;;;;;;;;;;;2.70;85.70;;;;;;5046576;28;19928;-65
2023/12/01 07:46:00;;;;;;;;;;;2.70;85.70;;;;;;5045289;28;19932;-63
2023/12/01 07:48:34;;;;;;;;;;;2.70;85.60;;;;;;5048764;28;19925;-64
2023/12/01 07:51:07;;;;;;;;;;;2.70;85.50;;;;;;5045635;28;19928;-65
2023/12/01 07:53:44;;;;;;;;;;;2.70;85.20;;;;;;5048441;28;20007;-64
2023/12/01 07:56:27;;;;;;;;;;;2.70;85.10;;;;;;5049384;28;20432;-65
2023/12/01 07:59:00;;;;;;;;;;;2.70;84.90;;;;;;5047692;28;19929;-63
2023/12/01 08:01:36;;;;;;;;;;;2.70;85.00;;;;;;5047775;28;19929;-64
2023/12/01 08:04:09;;;;;;;;;;;2.70;85.20;;;;;;5046098;28;19929;-64
2023/12/01 08:06:42;;;;;;;;;;;2.70;84.90;;;;;;5047221;28;19929;-64
2023/12/01 08:09:16;;;;;;;;;;;2.70;84.80;;;;;;5046492;28;19937;-64
2023/12/01 08:11:50;;;;;;;;;;;2.70;84.80;;;;;;5046685;28;20115;-63
2023/12/01 08:14:23;;;;;;;;;;;2.60;84.70;;;;;;5046180;28;19935;-64
2023/12/01 08:16:51;;;;;;;;;;;2.70;84.90;;;;;;5048680;28;19971;-64
2023/12/01 08:19:25;;;;;;;;;;;2.70;84.60;;;;;;5050577;28;19932;-65
2023/12/01 08:22:05;;;;;;;;;;;2.70;84.60;;;;;;5052114;28;19925;-64
2023/12/01 08:24:38;;;;;;;;;;;2.70;84.60;;;;;;5051469;28;20291;-64
2023/12/01 08:27:11;;;;;;;;;;;2.70;84.40;;;;;;5046601;28;19932;-64
2023/12/01 08:29:44;;;;;;;;;;;2.70;84.40;;;;;;5051303;28;20295;-65
2023/12/01 08:32:19;;;;;;;;;;;2.80;84.50;;;;;;5046076;28;19975;-64
2023/12/01 08:34:54;;;;;;;;;;;2.80;84.60;;;;;;5050755;28;19925;-65
2023/12/01 08:37:27;;;;;;;;;;;2.70;84.30;;;;;;5052286;28;19928;-64
2023/12/01 08:40:00;;;;;;;;;;;2.70;84.40;;;;;;5046299;28;19952;-63
2023/12/01 08:42:33;;;;;;;;;;;2.70;84.30;;;;;;5051388;28;19943;-65
2023/12/01 08:45:07;;;;;;;;;;;2.70;84.40;;;;;;5050162;28;19929;-64
2023/12/01 08:47:41;;;;;;;;;;;2.70;83.80;;;;;;5052959;28;19971;-64
2023/12/01 08:50:17;;;;;;;;;;;2.70;83.70;;;;;;5049002;28;19979;-63
2023/12/01 08:52:51;;;;;;;;;;;2.70;84.00;;;;;;5050352;28;20549;-63
2023/12/01 08:55:24;;;;;;;;;;;2.70;83.70;;;;;;5051187;28;20497;-64
2023/12/01 08:57:57;;;;;;;;;;;2.70;83.90;;;;;;5050142;28;19928;-64
2023/12/01 09:00:30;;;;;;;;;;;2.80;83.90;;;;;;5050026;28;19935;-63
2023/12/01 09:03:05;;;;;;;;;;;2.80;84.00;;;;;;5050870;28;19928;-64
2023/12/01 09:05:38;;;;;;;;;;;2.80;83.60;;;;;;5047769;28;20299;-63
2023/12/01 09:08:15;;;;;;;;;;;2.80;83.50;;;;;;5049094;28;19960;-64
2023/12/01 09:10:48;;;;;;;;;;;2.80;83.20;;;;;;5051583;28;19932;-64
2023/12/01 09:13:21;;;;;;;;;;;2.80;83.10;;;;;;5051397;28;19928;-64
2023/12/01 09:15:54;;;;;;;;;;;2.70;83.20;;;;;;5045818;28;19925;-64
2023/12/01 09:18:29;;;;;;;;;;;2.80;83.60;;;;;;5026562;28;20694;-64
2023/12/01 09:21:02;;;;;;;;;;;2.80;83.60;;;;;;5048355;28;20015;-64
2023/12/01 09:23:39;;;;;;;;;;;2.90;83.50;;;;;;5049920;28;19940;-65
2023/12/01 09:26:17;;;;;;;;;;;2.80;83.30;;;;;;5050382;28;19928;-64
2023/12/01 09:28:51;;;;;;;;;;;2.90;83.40;;;;;;5048261;28;19925;-63
2023/12/01 09:31:24;;;;;;;;;;;2.90;83.30;;;;;;5032814;28;20295;-65
2023/12/01 09:33:58;;;;;;;;;;;2.80;83.40;;;;;;5050531;28;19924;-64
2023/12/01 09:36:32;;;;;;;;;;;2.80;83.20;;;;;;5047189;28;19994;-64
2023/12/01 09:39:05;;;;;;;;;;;2.90;83.10;;;;;;5048123;28;19940;-64
2023/12/01 09:41:39;;;;;;;;;;;2.90;82.90;;;;;;5047559;28;19940;-63
2023/12/01 09:44:12;;;;;;;;;;;2.90;82.90;;;;;;5049898;28;19936;-64
2023/12/01 09:46:47;;;;;;;;;;;3.00;83.00;;;;;;5032803;28;20326;-63
2023/12/01 09:49:24;;;;;;;;;;;2.90;82.90;;;;;;5049583;28;20005;-64
2023/12/01 09:51:57;;;;;;;;;;;2.90;82.70;;;;;;5050257;28;20383;-63
2023/12/01 09:54:37;;;;;;;;;;;2.90;82.80;;;;;;5048503;28;19924;-63
2023/12/01 09:57:10;;;;;;;;;;;2.90;82.70;;;;;;5046486;28;19933;-63
2023/12/01 09:59:45;;;;;;;;;;;2.90;82.30;;;;;;5049720;28;19929;-64
2023/12/01 10:02:19;;;;;;;;;;;2.90;82.20;;;;;;5049639;28;20379;-64
2023/12/01 10:05:01;;;;;;;;;;;2.90;82.00;;;;;;5048424;28;19994;-64
2023/12/01 10:07:35;;;;;;;;;;;3.00;82.40;;;;;;5048884;28;20389;-63
2023/12/01 10:10:18;;;;;;;;;;;3.00;81.80;;;;;;5050103;28;19947;-63
2023/12/01 10:12:55;;;;;;;;;;;3.00;81.90;;;;;;5047358;28;20421;-63
2023/12/01 10:15:28;;;;;;;;;;;3.00;81.90;;;;;;5047755;28;19928;-62
2023/12/01 10:18:10;;;;;;;;;;;3.00;81.80;;;;;;5049731;28;20367;-63
2023/12/01 10:20:56;;;;;;;;;;;3.00;81.70;;;;;;5046284;28;19928;-64
2023/12/01 10:23:30;;;;;;;;;;;3.00;81.90;;;;;;5049863;28;19925;-63
2023/12/01 10:26:04;;;;;;;;;;;3.10;81.70;;;;;;5031966;28;19924;-65
2023/12/01 10:28:39;;;;;;;;;;;3.00;81.40;;;;;;5048288;28;20039;-63
2023/12/01 10:31:15;;;;;;;;;;;3.10;81.60;;;;;;5047663;28;19943;-65
2023/12/01 10:33:48;;;;;;;;;;;3.10;81.50;;;;;;5049412;28;19925;-64
2023/12/01 10:36:22;;;;;;;;;;;3.10;81.60;;;;;;5048030;28;19924;-63
2023/12/01 10:38:57;;;;;;;;;;;3.10;81.40;;;;;;5048794;28;19991;-65
2023/12/01 10:41:30;;;;;;;;;;;3.10;81.50;;;;;;5047265;28;19931;-64
2023/12/01 10:44:04;;;;;;;;;;;3.00;81.30;;;;;;5047203;28;20391;-64
2023/12/01 10:46:38;;;;;;;;;;;3.00;81.70;;;;;;5049157;28;19929;-64
2023/12/01 10:49:12;;;;;;;;;;;3.00;81.10;;;;;;5047622;28;22683;-64
2023/12/01 10:51:52;;;;;;;;;;;3.00;81.30;;;;;;5048725;28;19933;-65
2023/12/01 10:54:27;;;;;;;;;;;3.00;81.30;;;;;;5040433;28;20245;-65
2023/12/01 10:57:03;;;;;;;;;;;3.00;81.40;;;;;;5047817;28;19935;-64
2023/12/01 10:59:38;;;;;;;;;;;2.90;81.00;;;;;;5045010;28;19936;-64
2023/12/01 11:02:13;;;;;;;;;;;2.90;81.10;;;;;;5022521;28;23309;-75
2023/12/01 11:04:47;;;;;;;;;;;3.00;81.00;;;;;;5049003;28;19959;-74
2023/12/01 11:07:27;;;;;;;;;;;2.90;80.70;;;;;;5046536;28;20000;-75
2023/12/01 11:10:04;;;;;;;;;;;2.90;80.80;;;;;;5048763;28;20015;-73
2023/12/01 11:12:44;;;;;;;;;;;2.90;81.20;;;;;;5048941;28;20047;-73
2023/12/01 11:15:20;;;;;;;;;;;2.90;81.30;;;;;;5047765;28;19948;-75
2023/12/01 11:17:53;;;;;;;;;;;2.90;81.30;;;;;;5047695;28;19986;-73
2023/12/01 11:20:40;;;;;;;;;;;2.90;81.20;;;;;;5049341;28;19928;-76
2023/12/01 11:23:25;;;;;;;;;;;3.00;81.10;;;;;;5046706;28;19971;-75
2023/12/01 11:26:05;;;;;;;;;;;3.00;81.00;;;;;;5047173;28;20007;-76
2023/12/01 11:28:45;;;;;;;;;;;3.00;81.10;;;;;;5049112;28;20020;-76
2023/12/01 11:31:22;;;;;;;;;;;3.10;81.30;;;;;;5047369;28;19925;-74
2023/12/01 11:33:57;;;;;;;;;;;3.00;80.90;;;;;;5045830;28;19931;-75
2023/12/01 11:36:31;;;;;;;;;;;3.00;81.20;;;;;;5044809;28;19931;-76
2023/12/01 11:39:20;;;;;;;;;;;3.00;80.90;;;;;;5048196;28;19945;-74
2023/12/01 11:42:12;;;;;;;;;;;3.00;80.90;;;;;;5047831;28;20383;-75
2023/12/01 11:44:51;;;;;;;;;;;3.00;80.70;;;;;;5029839;28;19925;-74
2023/12/01 11:47:24;;;;;;;;;;;3.00;80.70;;;;;;5048344;28;19924;-75
2023/12/01 11:49:57;;;;;;;;;;;3.00;80.60;;;;;;5040991;28;19929;-75
2023/12/01 11:52:30;;;;;;;;;;;3.10;80.70;;;;;;5049993;28;19929;-75
2023/12/01 11:55:15;;;;;;;;;;;3.10;80.70;;;;;;5052811;28;19968;-74
2023/12/01 11:57:51;;;;;;;;;;;3.10;80.60;;;;;;5049740;28;19931;-75
2023/12/01 12:00:25;;;;;;;;;;;3.20;80.80;;;;;;5042332;28;19935;-76
2023/12/01 12:02:58;;;;;;;;;;;3.20;80.50;;;;;;5051064;28;20380;-76
2023/12/01 12:05:32;;;;;;;;;;;3.20;80.30;;;;;;5050028;28;19978;-75
2023/12/01 12:08:06;;;;;;;;;;;3.10;79.90;;;;;;5052546;28;20020;-75
2023/12/01 12:10:42;;;;;;;;;;;3.10;80.40;;;;;;5054392;28;19925;-65
2023/12/01 12:13:15;;;;;;;;;;;3.20;80.20;;;;;;5052869;28;19925;-66
2023/12/01 12:15:48;;;;;;;;;;;3.20;80.20;;;;;;5052505;28;20011;-65
2023/12/01 12:18:24;;;;;;;;;;;3.10;80.20;;;;;;5052710;28;20431;-65
2023/12/01 12:21:01;;;;;;;;;;;3.10;80.20;;;;;;5051783;28;19924;-64
2023/12/01 12:23:34;;;;;;;;;;;3.10;80.10;;;;;;5052784;28;19982;-65
2023/12/01 12:26:16;;;;;;;;;;;3.10;80.30;;;;;;5052207;28;19947;-65
2023/12/01 12:28:52;;;;;;;;;;;3.00;80.40;;;;;;5052507;28;20399;-65
2023/12/01 12:31:26;;;;;;;;;;;3.00;80.20;;;;;;5051666;28;20590;-66
2023/12/01 12:34:00;;;;;;;;;;;3.00;80.30;;;;;;5050031;28;20413;-65
2023/12/01 12:36:27;;;;;;;;;;;3.00;80.30;;;;;;5050627;28;19955;-65
2023/12/01 12:39:03;;;;;;;;;;;3.00;80.30;;;;;;5052441;28;19925;-65
2023/12/01 12:41:40;;;;;;;;;;;2.90;80.40;;;;;;5050510;28;19933;-65
2023/12/01 12:44:13;;;;;;;;;;;3.00;80.20;;;;;;5050744;28;19933;-65
2023/12/01 12:46:57;;;;;;;;;;;3.00;79.90;;;;;;5050008;28;19932;-66
2023/12/01 12:49:31;;;;;;;;;;;3.00;80.20;;;;;;5047812;28;20414;-66
2023/12/01 12:52:05;;;;;;;;;;;3.00;80.30;;;;;;5051079;28;19933;-64
2023/12/01 12:54:40;;;;;;;;;;;3.00;80.40;;;;;;5050031;28;19933;-65
2023/12/01 12:57:15;;;;;;;;;;;3.00;80.30;;;;;;5048774;28;19932;-65
2023/12/01 12:59:54;;;;;;;;;;;3.00;80.10;;;;;;5047699;28;19929;-65
2023/12/01 13:02:27;;;;;;;;;;;3.00;79.90;;;;;;5049512;28;19929;-65
2023/12/01 13:05:01;;;;;;;;;;;2.90;79.90;;;;;;5049794;28;19936;-65
2023/12/01 13:07:34;;;;;;;;;;;3.00;80.10;;;;;;5045018;28;19925;-65
2023/12/01 13:10:09;;;;;;;;;;;3.00;80.20;;;;;;5051184;28;19960;-64
2023/12/01 13:12:44;;;;;;;;;;;3.00;80.30;;;;;;5052342;28;20336;-66
2023/12/01 13:15:17;;;;;;;;;;;3.00;80.10;;;;;;5048935;28;19962;-64
2023/12/01 13:17:50;;;;;;;;;;;2.90;80.00;;;;;;5051816;28;19935;-64
2023/12/01 13:20:23;;;;;;;;;;;3.00;80.20;;;;;;5050758;28;19939;-63
2023/12/01 13:22:56;;;;;;;;;;;3.00;80.20;;;;;;5046785;28;19936;-62
2023/12/01 13:25:29;;;;;;;;;;;3.00;80.20;;;;;;5049596;28;19935;-63
2023/12/01 13:28:04;;;;;;;;;;;3.00;80.30;;;;;;5050516;28;19936;-63
2023/12/01 13:30:38;;;;;;;;;;;3.00;80.30;;;;;;5046327;28;19932;-63
2023/12/01 13:33:11;;;;;;;;;;;3.00;80.10;;;;;;5049705;28;20023;-63
2023/12/01 13:35:44;;;;;;;;;;;3.00;80.20;;;;;;5049916;28;19929;-63
2023/12/01 13:38:17;;;;;;;;;;;3.00;80.20;;;;;;5045864;28;19925;-63
2023/12/01 13:40:50;;;;;;;;;;;3.00;80.00;;;;;;5047573;28;20020;-64
2023/12/01 13:43:24;;;;;;;;;;;2.90;80.20;;;;;;5046768;28;19968;-63
2023/12/01 13:45:58;;;;;;;;;;;2.90;80.10;;;;;;5045498;28;19935;-63
2023/12/01 13:48:31;;;;;;;;;;;3.00;79.80;;;;;;5050972;28;19925;-62
2023/12/01 13:51:05;;;;;;;;;;;2.90;79.70;;;;;;5050674;28;19925;-63
2023/12/01 13:53:38;;;;;;;;;;;2.90;79.90;;;;;;5049218;28;19925;-62
2023/12/01 13:56:12;;;;;;;;;;;2.90;79.90;;;;;;5049961;28;19933;-62
2023/12/01 13:58:47;;;;;;;;;;;2.90;79.70;;;;;;5050805;28;19964;-64
2023/12/01 14:01:20;;;;;;;;;;;2.80;79.80;;;;;;5051005;28;19956;-64
2023/12/01 14:03:55;;;;;;;;;;;2.80;79.60;;;;;;5047165;28;20348;-64
2023/12/01 14:06:28;;;;;;;;;;;2.80;79.70;;;;;;5049667;28;19960;-64
2023/12/01 14:09:01;;;;;;;;;;;2.80;79.70;;;;;;5050093;28;20003;-62
2023/12/01 14:11:34;;;;;;;;;;;2.80;79.70;;;;;;5050494;28;20011;-64
2023/12/01 14:14:11;;;;;;;;;;;2.70;79.60;;;;;;5050305;28;19936;-63
2023/12/01 14:16:44;;;;;;;;;;;2.70;79.40;;;;;;5050162;28;20368;-64
2023/12/01 14:19:17;;;;;;;;;;;2.70;79.50;;;;;;5050483;28;19929;-64
2023/12/01 14:21:57;;;;;;;;;;;2.80;79.60;;;;;;5048552;28;19960;-62
2023/12/01 14:24:30;;;;;;;;;;;2.80;79.40;;;;;;5049835;28;19935;-64
2023/12/01 14:27:03;;;;;;;;;;;2.70;79.90;;;;;;5050364;28;19936;-63
2023/12/01 14:29:37;;;;;;;;;;;2.70;79.90;;;;;;5050376;28;19943;-63
2023/12/01 14:32:11;;;;;;;;;;;2.70;79.90;;;;;;5049611;28;19932;-61
2023/12/01 14:34:47;;;;;;;;;;;2.70;79.80;;;;;;5049447;28;19928;-62
2023/12/01 14:37:20;;;;;;;;;;;2.70;79.90;;;;;;5046741;28;19929;-61
2023/12/01 14:39:53;;;;;;;;;;;2.70;79.40;;;;;;5048669;28;19929;-61
2023/12/01 14:42:26;;;;;;;;;;;2.70;79.40;;;;;;5048737;28;20272;-61
2023/12/01 14:45:03;;;;;;;;;;;2.70;79.50;;;;;;5049739;28;19925;-61
2023/12/01 14:47:36;;;;;;;;;;;2.60;79.30;;;;;;5046900;28;19928;-62
2023/12/01 14:50:09;;;;;;;;;;;2.60;79.40;;;;;;5023188;28;20007;-61
2023/12/01 14:52:42;;;;;;;;;;;2.50;79.10;;;;;;5049752;28;19940;-61
2023/12/01 14:55:15;;;;;;;;;;;2.60;79.10;;;;;;5047989;28;20375;-60
2023/12/01 14:57:48;;;;;;;;;;;2.50;79.00;;;;;;5048226;28;19951;-60
2023/12/01 15:00:23;;;;;;;;;;;2.60;79.00;;;;;;5047782;28;19932;-62
2023/12/01 15:02:56;;;;;;;;;;;2.60;79.10;;;;;;5047458;28;19925;-62
2023/12/01 15:05:23;;;;;;;;;;;2.50;79.10;;;;;;5048068;28;19931;-63
2023/12/01 15:07:56;;;;;;;;;;;2.40;79.30;;;;;;5049053;28;19925;-62
2023/12/01 15:10:30;;;;;;;;;;;2.50;79.40;;;;;;5049698;28;19952;-61
2023/12/01 15:13:03;;;;;;;;;;;2.40;79.50;;;;;;5048297;28;19929;-62